createdAt,value
2023-05-05T00:01:22.872Z,101952.03
2023-05-05T00:03:49.194Z,101952.97
2023-05-05T00:06:15.448Z,101949.53
2023-05-05T00:08:41.737Z,101952.34
2023-05-05T00:11:07.969Z,101958.50
2023-05-05T00:13:34.206Z,101952.47
2023-05-05T00:16:00.532Z,101941.97
2023-05-05T00:18:26.756Z,101946.38
2023-05-05T00:20:52.997Z,101944.53
2023-05-05T00:23:19.224Z,101946.28
2023-05-05T00:25:45.444Z,101936.66
2023-05-05T00:28:11.735Z,101942.84
2023-05-05T00:30:37.975Z,101935.16
2023-05-05T00:33:04.376Z,101943.22
2023-05-05T00:35:30.738Z,101943.44
2023-05-05T00:37:56.990Z,101937.34
2023-05-05T00:40:23.241Z,101940.81
2023-05-05T00:42:49.526Z,101945.25
2023-05-05T00:45:15.868Z,101943.06
2023-05-05T00:47:42.129Z,101940.38
2023-05-05T00:50:08.481Z,101943.88
2023-05-05T00:52:34.852Z,101942.13
2023-05-05T00:55:01.105Z,101942.16
2023-05-05T00:57:27.339Z,101932.56
2023-05-05T00:59:53.589Z,101931.75
2023-05-05T01:02:19.788Z,101937.25
2023-05-05T01:04:46.111Z,101927.00
2023-05-05T01:07:12.364Z,101920.00
2023-05-05T01:09:38.636Z,101922.81
2023-05-05T01:12:04.914Z,101916.75
2023-05-05T01:14:31.125Z,101912.50
2023-05-05T01:16:57.471Z,101917.75
2023-05-05T01:19:23.744Z,101924.81
2023-05-05T01:21:50.059Z,101918.88
2023-05-05T01:24:16.307Z,101923.34
2023-05-05T01:26:42.581Z,101923.38
2023-05-05T01:29:08.833Z,101924.53
2023-05-05T01:31:35.071Z,101919.59
2023-05-05T01:34:01.372Z,101918.91
2023-05-05T01:36:27.625Z,101919.94
2023-05-05T01:38:53.876Z,101915.69
2023-05-05T01:41:20.185Z,101919.22
2023-05-05T01:43:46.443Z,101921.06
2023-05-05T01:46:12.857Z,101914.19
2023-05-05T01:48:41.067Z,101915.81
2023-05-05T01:51:08.540Z,101909.59
2023-05-05T01:53:34.796Z,101917.41
2023-05-05T01:56:01.035Z,101920.84
2023-05-05T01:58:27.285Z,101917.31
2023-05-05T02:00:53.538Z,101917.31
2023-05-05T02:03:20.009Z,101919.06
2023-05-05T02:05:46.405Z,101918.19
2023-05-05T02:08:12.703Z,101922.56
2023-05-05T02:10:39.075Z,101916.56
2023-05-05T02:13:05.551Z,101925.31
2023-05-05T02:15:31.942Z,101924.50
2023-05-05T02:17:58.209Z,101925.44
2023-05-05T02:20:24.474Z,101930.72
2023-05-05T02:22:50.838Z,101926.44
2023-05-05T02:25:17.121Z,101925.53
2023-05-05T02:27:43.432Z,101925.66
2023-05-05T02:30:10.008Z,101925.88
2023-05-05T02:32:36.602Z,101925.13
2023-05-05T02:35:02.942Z,101925.06
2023-05-05T02:37:29.270Z,101918.09
2023-05-05T02:39:55.467Z,101919.88
2023-05-05T02:42:21.705Z,101913.00
2023-05-05T02:44:48.022Z,101912.25
2023-05-05T02:47:14.256Z,101916.63
2023-05-05T02:49:40.532Z,101913.00
2023-05-05T02:52:06.818Z,101911.25
2023-05-05T02:54:33.147Z,101909.50
2023-05-05T02:56:59.432Z,101907.75
2023-05-05T02:59:25.715Z,101911.25
2023-05-05T03:01:52.052Z,101911.34
2023-05-05T03:04:18.388Z,101914.97
2023-05-05T03:06:44.709Z,101915.94
2023-05-05T03:09:10.949Z,101910.72
2023-05-05T03:11:37.216Z,101905.53
2023-05-05T03:14:03.454Z,101902.91
2023-05-05T03:16:29.772Z,101897.78
2023-05-05T03:18:56.095Z,101897.06
2023-05-05T03:21:22.347Z,101897.28
2023-05-05T03:23:48.558Z,101901.75
2023-05-05T03:26:14.797Z,101901.00
2023-05-05T03:28:41.024Z,101906.38
2023-05-05T03:31:07.239Z,101900.38
2023-05-05T03:33:33.504Z,101898.63
2023-05-05T03:35:59.822Z,101899.59
2023-05-05T03:38:26.092Z,101903.09
2023-05-05T03:40:52.353Z,101900.72
2023-05-05T03:43:18.597Z,101896.53
2023-05-05T03:45:44.855Z,101901.75
2023-05-05T03:48:11.136Z,101896.63
2023-05-05T03:50:37.383Z,101900.97
2023-05-05T03:53:03.590Z,101888.75
2023-05-05T03:55:29.802Z,101900.16
2023-05-05T03:57:56.095Z,101894.09
2023-05-05T04:00:22.321Z,101895.84
2023-05-05T04:02:48.663Z,101894.16
2023-05-05T04:05:15.007Z,101892.44
2023-05-05T04:07:41.216Z,101891.63
2023-05-05T04:10:07.745Z,101895.13
2023-05-05T04:12:34.210Z,101892.47
2023-05-05T04:15:00.490Z,101892.59
2023-05-05T04:17:26.827Z,101897.00
2023-05-05T04:19:53.102Z,101897.84
2023-05-05T04:22:19.386Z,101896.09
2023-05-05T04:24:45.661Z,101898.72
2023-05-05T04:27:11.918Z,101901.34
2023-05-05T04:29:38.143Z,101902.19
2023-05-05T04:32:04.337Z,101908.31
2023-05-05T04:34:30.560Z,101903.06
2023-05-05T04:36:56.753Z,101905.66
2023-05-05T04:39:23.004Z,101916.13
2023-05-05T04:41:49.210Z,101912.63
2023-05-05T04:44:15.401Z,101909.19
2023-05-05T04:46:41.652Z,101910.94
2023-05-05T04:49:07.903Z,101909.16
2023-05-05T04:51:34.159Z,101915.19
2023-05-05T04:54:00.410Z,101900.34
2023-05-05T04:56:26.751Z,101909.84
2023-05-05T04:58:52.989Z,101912.41
2023-05-05T05:01:19.286Z,101908.06
2023-05-05T05:03:45.720Z,101912.31
2023-05-05T05:06:12.088Z,101915.91
2023-05-05T05:08:38.364Z,101917.72
2023-05-05T05:11:04.606Z,101914.13
2023-05-05T05:13:30.868Z,101914.06
2023-05-05T05:15:57.205Z,101918.31
2023-05-05T05:18:23.524Z,101916.47
2023-05-05T05:20:49.765Z,101925.88
2023-05-05T05:23:16.076Z,101925.78
2023-05-05T05:25:42.324Z,101932.66
2023-05-05T05:28:10.698Z,101934.25
2023-05-05T05:30:37.343Z,101941.13
2023-05-05T05:33:03.760Z,101942.81
2023-05-05T05:35:30.117Z,101941.03
2023-05-05T05:37:56.375Z,101948.75
2023-05-05T05:40:22.623Z,101943.22
2023-05-05T05:42:48.804Z,101940.34
2023-05-05T05:45:15.023Z,101942.72
2023-05-05T05:47:41.333Z,101942.50
2023-05-05T05:50:07.970Z,101945.09
2023-05-05T05:52:34.468Z,101943.78
2023-05-05T05:55:00.788Z,101946.84
2023-05-05T05:57:27.098Z,101946.63
2023-05-05T05:59:53.371Z,101941.84
2023-05-05T06:02:19.652Z,101944.91
2023-05-05T06:04:45.869Z,101940.19
2023-05-05T06:07:12.106Z,101944.19
2023-05-05T06:09:38.444Z,101940.31
2023-05-05T06:12:04.663Z,101942.41
2023-05-05T06:14:30.900Z,101940.41
2023-05-05T06:16:57.211Z,101948.59
2023-05-05T06:19:23.467Z,101950.81
2023-05-05T06:21:49.761Z,101945.16
2023-05-05T06:24:16.049Z,101937.00
2023-05-05T06:26:42.758Z,101944.56
2023-05-05T06:29:10.504Z,101946.72
2023-05-05T06:31:38.423Z,101930.56
2023-05-05T06:34:04.660Z,101935.75
2023-05-05T06:36:31.053Z,101938.22
2023-05-05T06:38:57.348Z,101932.38
2023-05-05T06:41:23.623Z,101934.44
2023-05-05T06:43:49.870Z,101928.59
2023-05-05T06:46:16.179Z,101928.28
2023-05-05T06:48:42.452Z,101935.13
2023-05-05T06:51:08.676Z,101940.31
2023-05-05T06:53:34.971Z,101934.88
2023-05-05T06:56:01.235Z,101936.94
2023-05-05T06:58:27.490Z,101938.53
2023-05-05T07:00:53.856Z,101941.84
2023-05-05T07:03:20.200Z,101937.44
2023-05-05T07:05:46.528Z,101946.00
2023-05-05T07:08:12.813Z,101951.81
2023-05-05T07:10:39.045Z,101941.97
2023-05-05T07:13:05.359Z,101947.97
2023-05-05T07:15:31.704Z,101948.84
2023-05-05T07:17:58.230Z,101945.50
2023-05-05T07:20:24.822Z,101943.41
2023-05-05T07:22:51.077Z,101944.53
2023-05-05T07:25:17.384Z,101952.41
2023-05-05T07:27:43.733Z,101951.03
2023-05-05T07:30:13.974Z,101967.13
2023-05-05T07:32:42.753Z,101967.50
2023-05-05T07:35:09.045Z,101967.50
2023-05-05T07:37:35.436Z,101970.69
2023-05-05T07:40:01.749Z,101966.56
2023-05-05T07:42:28.061Z,101964.06
2023-05-05T07:44:54.315Z,101966.06
2023-05-05T07:47:20.694Z,101965.56
2023-05-05T07:49:46.952Z,101963.16
2023-05-05T07:52:13.198Z,101967.88
2023-05-05T07:54:39.523Z,101959.78
2023-05-05T07:57:05.804Z,101964.47
2023-05-05T07:59:32.066Z,101970.94
2023-05-05T08:01:58.367Z,101976.53
2023-05-05T08:04:24.646Z,101972.81
2023-05-05T08:06:50.925Z,101966.44
2023-05-05T08:09:17.288Z,101966.13
2023-05-05T08:11:43.550Z,101966.19
2023-05-05T08:14:09.816Z,101973.72
2023-05-05T08:16:36.303Z,101965.97
2023-05-05T08:19:02.751Z,101966.63
2023-05-05T08:21:29.019Z,101968.31
2023-05-05T08:23:55.288Z,101963.50
2023-05-05T08:26:21.557Z,101968.69
2023-05-05T08:28:47.849Z,101963.28
2023-05-05T08:31:14.121Z,101971.59
2023-05-05T08:33:40.476Z,101964.44
2023-05-05T08:36:06.755Z,101964.28
2023-05-05T08:38:33.041Z,101967.69
2023-05-05T08:40:59.350Z,101960.28
2023-05-05T08:43:25.635Z,101962.03
2023-05-05T08:45:51.872Z,101963.56
2023-05-05T08:48:18.123Z,101968.63
2023-05-05T08:50:44.378Z,101965.47
2023-05-05T08:53:10.643Z,101966.44
2023-05-05T08:55:36.907Z,101965.03
2023-05-05T08:58:03.240Z,101965.91
2023-05-05T09:00:29.476Z,101967.16
2023-05-05T09:02:55.820Z,101973.41
2023-05-05T09:05:22.094Z,101964.44
2023-05-05T09:07:48.427Z,101964.69
2023-05-05T09:10:14.715Z,101969.03
2023-05-05T09:12:41.095Z,101975.09
2023-05-05T09:15:07.534Z,101974.09
2023-05-05T09:17:33.941Z,101968.19
2023-05-05T09:20:00.258Z,101967.91
2023-05-05T09:22:26.495Z,101974.84
2023-05-05T09:24:52.747Z,101968.84
2023-05-05T09:27:18.986Z,101965.44
2023-05-05T09:29:45.255Z,101968.31
2023-05-05T09:32:11.532Z,101972.00
2023-05-05T09:34:37.859Z,101969.16
2023-05-05T09:37:04.073Z,101974.28
2023-05-05T09:39:30.306Z,101982.88
2023-05-05T09:41:56.636Z,101970.81
2023-05-05T09:44:22.955Z,101972.16
2023-05-05T09:46:49.291Z,101971.81
2023-05-05T09:49:15.557Z,101965.63
2023-05-05T09:51:41.837Z,101968.22
2023-05-05T09:54:08.059Z,101965.41
2023-05-05T09:56:34.290Z,101962.13
2023-05-05T09:59:00.548Z,101961.16
2023-05-05T10:01:26.817Z,101960.88
2023-05-05T10:03:53.108Z,101966.09
2023-05-05T10:06:19.396Z,101962.81
2023-05-05T10:08:45.666Z,101964.22
2023-05-05T10:11:11.923Z,101968.75
2023-05-05T10:13:38.205Z,101962.03
2023-05-05T10:16:04.516Z,101963.06
2023-05-05T10:18:30.816Z,101958.28
2023-05-05T10:20:57.095Z,101961.88
2023-05-05T10:23:23.348Z,101957.22
2023-05-05T10:25:49.603Z,101968.78
2023-05-05T10:28:15.854Z,101956.72
2023-05-05T10:30:42.162Z,101956.97
2023-05-05T10:35:39.791Z,101955.56
2023-05-05T10:38:06.051Z,101960.38
2023-05-05T10:40:32.360Z,101963.25
2023-05-05T10:42:58.686Z,101956.19
2023-05-05T10:45:25.075Z,101957.56
2023-05-05T10:47:51.435Z,101951.63
2023-05-05T10:50:17.659Z,101950.75
2023-05-05T10:52:43.950Z,101950.28
2023-05-05T10:55:10.259Z,101940.09
2023-05-05T10:57:36.507Z,101932.50
2023-05-05T11:00:02.743Z,101934.19
2023-05-05T11:02:29.246Z,101932.09
2023-05-05T11:04:55.613Z,101931.38
2023-05-05T11:07:21.868Z,101931.03
2023-05-05T11:09:48.099Z,101922.75
2023-05-05T11:12:14.415Z,101915.00
2023-05-05T11:14:40.675Z,101917.66
2023-05-05T11:17:06.911Z,101920.06
2023-05-05T11:19:33.187Z,101913.31
2023-05-05T11:21:59.476Z,101918.69
2023-05-05T11:24:25.757Z,101903.59
2023-05-05T11:26:51.979Z,101899.06
2023-05-05T11:29:18.225Z,101900.00
2023-05-05T11:31:44.452Z,101900.53
2023-05-05T11:34:10.726Z,101893.41
2023-05-05T11:36:37.011Z,101891.22
2023-05-05T11:39:03.364Z,101894.34
2023-05-05T11:41:29.664Z,101890.03
2023-05-05T11:43:55.988Z,101897.81
2023-05-05T11:46:22.240Z,101887.50
2023-05-05T11:48:48.525Z,101894.41
2023-05-05T11:51:14.779Z,101900.16
2023-05-05T11:53:41.078Z,101888.84
2023-05-05T11:56:07.362Z,101908.16
2023-05-05T11:58:33.667Z,101897.25
2023-05-05T12:00:59.937Z,101898.09
2023-05-05T12:03:26.262Z,101896.97
2023-05-05T12:05:52.645Z,101888.50
2023-05-05T12:08:18.916Z,101900.66
2023-05-05T12:10:45.197Z,101901.63
2023-05-05T12:13:12.044Z,101894.09
2023-05-05T12:15:38.406Z,101898.44
2023-05-05T12:18:04.713Z,101895.38
2023-05-05T12:20:31.051Z,101896.81
2023-05-05T12:22:57.334Z,101901.06
2023-05-05T12:25:23.616Z,101904.38
2023-05-05T12:27:49.857Z,101898.09
2023-05-05T12:30:16.177Z,101898.72
2023-05-05T12:32:42.524Z,101892.97
2023-05-05T12:35:08.890Z,101890.34
2023-05-05T12:37:35.182Z,101892.19
2023-05-05T12:40:01.530Z,101889.72
2023-05-05T12:42:27.838Z,101890.94
2023-05-05T12:44:54.146Z,101891.25
2023-05-05T12:47:20.466Z,101888.66
2023-05-05T12:49:46.755Z,101885.75
2023-05-05T12:52:13.181Z,101886.75
2023-05-05T12:54:39.429Z,101878.91
2023-05-05T12:57:05.743Z,101885.16
2023-05-05T12:59:32.049Z,101875.50
2023-05-05T13:01:58.352Z,101880.28
2023-05-05T13:04:24.731Z,101872.84
2023-05-05T13:06:52.071Z,101876.75
2023-05-05T13:09:19.868Z,101871.16
2023-05-05T13:11:46.191Z,101873.72
2023-05-05T13:14:12.452Z,101875.75
2023-05-05T13:16:38.714Z,101869.44
2023-05-05T13:19:05.032Z,101866.06
2023-05-05T13:21:31.324Z,101871.38
2023-05-05T13:24:08.088Z,101858.16
2023-05-05T13:26:38.554Z,101856.94
2023-05-05T13:29:04.797Z,101857.44
2023-05-05T13:31:31.119Z,101852.72
2023-05-05T13:33:57.411Z,101848.03
2023-05-05T13:36:23.745Z,101845.47
2023-05-05T13:38:50.039Z,101842.84
2023-05-05T13:41:16.326Z,101839.03
2023-05-05T13:43:42.612Z,101836.72
2023-05-05T13:46:19.170Z,101840.75
2023-05-05T13:48:46.656Z,101840.88
2023-05-05T13:51:12.923Z,101828.50
2023-05-05T13:53:39.165Z,101829.91
2023-05-05T13:56:05.453Z,101829.84
2023-05-05T13:58:31.667Z,101824.25
2023-05-05T14:00:59.185Z,101826.72
2023-05-05T14:03:25.476Z,101827.94
2023-05-05T14:05:51.764Z,101824.78
2023-05-05T14:08:18.007Z,101816.88
2023-05-05T14:10:46.681Z,101821.97
2023-05-05T14:13:13.818Z,101813.97
2023-05-05T14:15:40.095Z,101819.06
2023-05-05T14:18:06.388Z,101810.81
2023-05-05T14:20:32.639Z,101811.00
2023-05-05T14:22:58.867Z,101814.69
2023-05-05T14:25:25.121Z,101813.63
2023-05-05T14:27:51.379Z,101812.13
2023-05-05T14:30:17.620Z,101816.50
2023-05-05T14:32:44.022Z,101814.09
2023-05-05T14:35:10.484Z,101807.13
2023-05-05T14:37:36.781Z,101807.03
2023-05-05T14:40:05.516Z,101808.16
2023-05-05T14:42:32.041Z,101809.47
2023-05-05T14:44:58.361Z,101798.03
2023-05-05T14:47:24.661Z,101795.38
2023-05-05T14:49:50.942Z,101812.41
2023-05-05T14:52:17.292Z,101807.84
2023-05-05T14:54:43.604Z,101803.63
2023-05-05T14:57:09.894Z,101798.78
2023-05-05T14:59:36.169Z,101797.00
2023-05-05T15:02:02.600Z,101790.50
2023-05-05T15:04:28.915Z,101789.28
2023-05-05T15:06:55.431Z,101793.81
2023-05-05T15:09:21.702Z,101789.91
2023-05-05T15:11:47.946Z,101795.38
2023-05-05T15:14:14.254Z,101791.63
2023-05-05T15:16:40.642Z,101799.50
2023-05-05T15:19:06.981Z,101798.16
2023-05-05T15:21:33.247Z,101800.00
2023-05-05T15:23:59.506Z,101793.31
2023-05-05T15:26:25.772Z,101798.19
2023-05-05T15:28:51.996Z,101796.16
2023-05-05T15:31:18.261Z,101794.63
2023-05-05T15:33:44.549Z,101802.19
2023-05-05T15:36:10.789Z,101806.78
2023-05-05T15:38:37.104Z,101800.38
2023-05-05T15:41:03.424Z,101792.84
2023-05-05T15:43:29.706Z,101790.28
2023-05-05T15:45:55.990Z,101791.75
2023-05-05T15:48:22.269Z,101788.00
2023-05-05T15:50:48.553Z,101786.25
2023-05-05T15:53:14.849Z,101796.16
2023-05-05T15:55:41.103Z,101793.22
2023-05-05T15:58:07.401Z,101793.09
2023-05-05T16:00:33.704Z,101792.16
2023-05-05T16:03:00.118Z,101788.00
2023-05-05T16:05:26.444Z,101786.34
2023-05-05T16:07:52.707Z,101788.94
2023-05-05T16:10:18.985Z,101784.81
2023-05-05T16:12:45.333Z,101783.19
2023-05-05T16:15:11.812Z,101781.88
2023-05-05T16:17:38.164Z,101790.59
2023-05-05T16:20:04.454Z,101779.50
2023-05-05T16:22:30.798Z,101781.94
2023-05-05T16:24:57.074Z,101781.06
2023-05-05T16:27:23.302Z,101784.09
2023-05-05T16:29:49.542Z,101786.50
2023-05-05T16:32:15.842Z,101779.09
2023-05-05T16:34:42.046Z,101786.78
2023-05-05T16:37:08.213Z,101779.56
2023-05-05T16:39:34.461Z,101779.72
2023-05-05T16:42:00.735Z,101772.25
2023-05-05T16:44:26.949Z,101773.09
2023-05-05T16:46:53.196Z,101769.59
2023-05-05T16:49:19.468Z,101773.19
2023-05-05T16:51:45.723Z,101768.56
2023-05-05T16:54:11.974Z,101758.25
2023-05-05T16:56:38.265Z,101772.03
2023-05-05T16:59:04.527Z,101770.09
2023-05-05T17:01:30.824Z,101770.78
2023-05-05T17:03:57.162Z,101766.41
2023-05-05T17:06:23.395Z,101765.28
2023-05-05T17:08:49.630Z,101761.31
2023-05-05T17:11:15.849Z,101759.78
2023-05-05T17:13:42.091Z,101757.72
2023-05-05T17:16:08.425Z,101754.03
2023-05-05T17:18:34.640Z,101759.72
2023-05-05T17:21:00.896Z,101747.53
2023-05-05T17:23:27.137Z,101754.13
2023-05-05T17:25:53.391Z,101757.13
2023-05-05T17:28:19.601Z,101757.00
2023-05-05T17:30:45.856Z,101750.72
2023-05-05T17:33:12.108Z,101754.78
2023-05-05T17:35:38.341Z,101760.03
2023-05-05T17:38:04.599Z,101753.44
2023-05-05T17:40:30.875Z,101756.19
2023-05-05T17:42:57.163Z,101753.09
2023-05-05T17:45:23.427Z,101756.84
2023-05-05T17:47:49.676Z,101760.88
2023-05-05T17:50:16.007Z,101761.22
2023-05-05T17:52:42.328Z,101764.63
2023-05-05T17:55:08.935Z,101756.34
2023-05-05T17:57:35.443Z,101760.66
2023-05-05T18:00:01.801Z,101754.16
2023-05-05T18:02:28.125Z,101759.72
2023-05-05T18:04:54.384Z,101754.50
2023-05-05T18:07:20.658Z,101760.75
2023-05-05T18:09:46.946Z,101756.75
2023-05-05T18:12:13.265Z,101749.63
2023-05-05T18:14:39.472Z,101745.16
2023-05-05T18:17:05.804Z,101742.41
2023-05-05T18:19:32.109Z,101734.00
2023-05-05T18:21:58.391Z,101732.00
2023-05-05T18:24:24.644Z,101729.69
2023-05-05T18:26:50.885Z,101726.53
2023-05-05T18:29:17.206Z,101726.06
2023-05-05T18:31:43.527Z,101728.25
2023-05-05T18:34:09.813Z,101718.84
2023-05-05T18:36:36.056Z,101728.03
2023-05-05T18:39:02.330Z,101714.38
2023-05-05T18:41:28.627Z,101716.53
2023-05-05T18:43:54.848Z,101703.56
2023-05-05T18:46:21.147Z,101709.91
2023-05-05T18:48:47.434Z,101708.25
2023-05-05T18:51:13.705Z,101701.34
2023-05-05T18:53:40.564Z,101713.75
2023-05-05T18:56:07.038Z,101717.66
2023-05-05T18:58:33.322Z,101715.22
2023-05-05T19:00:59.658Z,101717.25
2023-05-05T19:03:26.016Z,101714.81
2023-05-05T19:05:52.318Z,101720.22
2023-05-05T19:08:18.574Z,101727.28
2023-05-05T19:10:44.893Z,101722.06
2023-05-05T19:13:11.321Z,101721.28
2023-05-05T19:15:37.603Z,101725.63
2023-05-05T19:18:03.935Z,101734.47
2023-05-05T19:20:30.194Z,101737.31
2023-05-05T19:22:56.431Z,101727.94
2023-05-05T19:25:22.639Z,101735.06
2023-05-05T19:27:48.906Z,101735.19
2023-05-05T19:30:15.152Z,101735.25
2023-05-05T19:32:41.473Z,101729.41
2023-05-05T19:35:08.059Z,101733.97
2023-05-05T19:37:34.541Z,101742.09
2023-05-05T19:40:00.778Z,101741.47
2023-05-05T19:42:27.018Z,101742.66
2023-05-05T19:44:53.298Z,101740.16
2023-05-05T19:47:19.573Z,101744.38
2023-05-05T19:49:45.880Z,101746.72
2023-05-05T19:52:12.142Z,101752.56
2023-05-05T19:54:38.425Z,101751.56
2023-05-05T19:57:04.739Z,101748.66
2023-05-05T19:59:30.968Z,101743.25
2023-05-05T20:01:57.495Z,101751.88
2023-05-05T20:04:23.946Z,101753.34
2023-05-05T20:06:50.309Z,101750.59
2023-05-05T20:09:16.578Z,101749.72
2023-05-05T20:11:42.815Z,101751.41
2023-05-05T20:14:09.073Z,101754.13
2023-05-05T20:16:35.543Z,101752.44
2023-05-05T20:19:01.987Z,101751.66
2023-05-05T20:21:28.310Z,101750.72
2023-05-05T20:23:54.639Z,101756.00
2023-05-05T20:26:20.894Z,101748.25
2023-05-05T20:28:47.113Z,101751.94
2023-05-05T20:31:13.723Z,101747.00
2023-05-05T20:33:40.142Z,101755.06
2023-05-05T20:36:06.409Z,101747.16
2023-05-05T20:38:32.710Z,101743.81
2023-05-05T20:40:59.019Z,101747.38
2023-05-05T20:43:25.281Z,101742.28
2023-05-05T20:45:51.543Z,101744.22
2023-05-05T20:48:17.773Z,101739.94
2023-05-05T20:50:44.014Z,101738.59
2023-05-05T20:53:10.252Z,101740.56
2023-05-05T20:55:36.512Z,101737.38
2023-05-05T20:58:02.858Z,101740.13
2023-05-05T21:00:29.155Z,101741.97
2023-05-05T21:02:55.490Z,101739.50
2023-05-05T21:05:21.835Z,101741.53
2023-05-05T21:07:48.099Z,101736.47
2023-05-05T21:10:14.329Z,101732.16
2023-05-05T21:12:40.704Z,101732.28
2023-05-05T21:15:07.359Z,101733.19
2023-05-05T21:17:33.850Z,101731.50
2023-05-05T21:20:00.176Z,101731.34
2023-05-05T21:22:26.397Z,101738.53
2023-05-05T21:24:52.685Z,101733.63
2023-05-05T21:27:18.981Z,101731.09
2023-05-05T21:29:45.218Z,101725.00
2023-05-05T21:32:11.452Z,101733.09
2023-05-05T21:34:37.710Z,101726.16
2023-05-05T21:37:04.057Z,101728.97
2023-05-05T21:39:30.340Z,101727.41
2023-05-05T21:41:56.572Z,101725.78
2023-05-05T21:44:22.820Z,101721.50
2023-05-05T21:46:49.142Z,101722.63
2023-05-05T21:49:15.529Z,101719.38
2023-05-05T21:51:41.774Z,101724.00
2023-05-05T21:54:08.078Z,101730.06
2023-05-05T21:56:34.350Z,101722.94
2023-05-05T21:59:00.713Z,101728.13
2023-05-05T22:01:26.979Z,101729.00
2023-05-05T22:03:53.390Z,101728.22
2023-05-05T22:06:19.783Z,101728.47
2023-05-05T22:08:46.057Z,101724.91
2023-05-05T22:11:12.350Z,101729.28
2023-05-05T22:13:38.625Z,101723.94
2023-05-05T22:16:04.937Z,101726.63
2023-05-05T22:18:31.274Z,101729.38
2023-05-05T22:20:57.568Z,101717.94
2023-05-05T22:23:23.842Z,101721.53
2023-05-05T22:25:50.126Z,101726.00
2023-05-05T22:28:16.349Z,101721.00
2023-05-05T22:30:42.602Z,101711.34
2023-05-05T22:33:08.954Z,101704.50
2023-05-05T22:35:35.261Z,101702.84
2023-05-05T22:38:01.529Z,101700.31
2023-05-05T22:40:27.873Z,101713.44
2023-05-05T22:42:54.231Z,101708.09
2023-05-05T22:45:20.472Z,101709.25
2023-05-05T22:47:46.750Z,101710.25
2023-05-05T22:50:13.059Z,101711.22
2023-05-05T22:52:39.299Z,101717.66
2023-05-05T22:55:05.565Z,101710.69
2023-05-05T22:57:31.899Z,101707.41
2023-05-05T22:59:58.190Z,101700.44
2023-05-05T23:02:24.498Z,101712.91
2023-05-05T23:04:50.797Z,101712.19
2023-05-05T23:07:17.066Z,101705.34
2023-05-05T23:09:43.271Z,101708.19
2023-05-05T23:12:09.477Z,101709.31
2023-05-05T23:14:35.935Z,101709.47
2023-05-05T23:17:02.351Z,101710.56
2023-05-05T23:19:28.661Z,101704.69
2023-05-05T23:21:54.894Z,101712.00
2023-05-05T23:24:21.094Z,101706.13
2023-05-05T23:26:47.347Z,101696.94
2023-05-05T23:29:13.566Z,101705.03
2023-05-05T23:31:39.843Z,101703.44
2023-05-05T23:34:06.141Z,101693.66
2023-05-05T23:36:32.374Z,101696.22
2023-05-05T23:38:58.658Z,101689.25
2023-05-05T23:41:24.904Z,101682.28
2023-05-05T23:43:51.162Z,101675.25
2023-05-05T23:46:17.456Z,101672.69
2023-05-05T23:48:43.789Z,101676.22
2023-05-05T23:51:10.034Z,101669.38
2023-05-05T23:53:36.300Z,101675.06
2023-05-05T23:56:02.571Z,101676.28
2023-05-05T23:58:28.848Z,101673.03
